Terminal Aerodrome Forecast
Issued by NWS

Home | Current Version | Previous Version | Text Only | Print | Product List | Glossary Off
Versions: 1 2 3 4 5 6 7 8 9 10 11 12 13 14 15 16

000
FTUS45 KGGW 161100
TAFGDV
TAF
KGDV 161127Z 1612/1712 04011KT P6SM BKN100
     FM161400 03011KT P6SM BKN020
     FM162000 05012KT P6SM OVC050
     FM170400 09009KT P6SM BKN100
      AMD LTD TO CLD VIS AND WIND=

USA.gov is the U.S. government's official web portal to all federal, state and local government web resources and services.